Time;durP1;ratioP1;P1;durP2;ratioP2;P2;SDS_P1;SDS_P2;PMS_P1;PMS_P2;Temp;Humidity;BMP_temperature;BMP_pressure;BME280_temperature;BME280_humidity;BME280_pressure;Samples;Min_cycle;Max_cycle;Signal;HPM_P1;HPM_P2
2021/04/08 00:02:27;;;;;;;23.80;10.82;;;;;;;-0.03;100.00;94687.47;10487985;28;20040;-77
2021/04/08 00:07:28;;;;;;;15.60;10.63;;;;;;;0.09;100.00;94676.25;10486966;28;20140;-76
2021/04/08 00:12:28;;;;;;;18.75;11.00;;;;;;;0.09;100.00;94677.03;10487984;28;20764;-76
2021/04/08 00:17:28;;;;;;;16.10;10.53;;;;;;;0.25;100.00;94675.78;10488366;28;20087;-75
2021/04/08 00:22:29;;;;;;;15.50;11.17;;;;;;;0.21;100.00;94669.28;10453213;28;20429;-76
2021/04/08 00:27:29;;;;;;;15.87;10.77;;;;;;;0.03;100.00;94669.13;10448521;28;20033;-76
2021/04/08 00:32:30;;;;;;;21.93;11.80;;;;;;;-0.15;100.00;94675.09;10450666;28;20279;-76
2021/04/08 00:37:30;;;;;;;23.00;11.35;;;;;;;-0.39;100.00;94672.09;10445447;28;20333;-78
2021/04/08 00:42:30;;;;;;;16.67;11.90;;;;;;;-0.65;100.00;94673.78;10446421;28;20051;-76
2021/04/08 00:47:31;;;;;;;17.83;12.73;;;;;;;-0.80;100.00;94683.72;10446452;28;20025;-76
2021/04/08 00:52:32;;;;;;;18.65;11.50;;;;;;;-0.87;100.00;94684.53;10447097;28;20032;-76
2021/04/08 00:57:32;;;;;;;18.02;12.25;;;;;;;-1.01;100.00;94684.75;10445409;28;20120;-75
2021/04/08 01:02:33;;;;;;;20.70;11.25;;;;;;;-0.93;100.00;94684.53;10445888;28;20040;-76
2021/04/08 01:07:36;;;;;;;17.33;11.30;;;;;;;-0.99;100.00;94678.25;10446202;28;20148;-75
2021/04/08 01:12:37;;;;;;;20.27;12.27;;;;;;;-0.98;100.00;94673.78;10445492;28;20029;-76
2021/04/08 01:18:02;;;;;;;15.55;12.63;;;;;;;-0.97;100.00;94678.06;10444615;28;20100;-76
2021/04/08 01:23:11;;;;;;;18.83;11.73;;;;;;;-1.04;100.00;94676.19;10459245;28;20399;-77
2021/04/08 01:28:23;;;;;;;20.77;13.27;;;;;;;-1.23;100.00;94674.38;10444155;28;20031;-75
2021/04/08 01:33:40;;;;;;;18.92;12.30;;;;;;;-1.32;100.00;94680.84;10442442;28;20094;-77
2021/04/08 01:38:45;;;;;;;21.17;12.63;;;;;;;-1.37;100.00;94686.72;10443862;28;20756;-76
2021/04/08 01:43:49;;;;;;;18.63;12.60;;;;;;;-1.32;100.00;94684.28;10444063;28;20059;-76
2021/04/08 01:48:53;;;;;;;15.40;11.38;;;;;;;-1.34;100.00;94670.50;10444803;28;20036;-76
2021/04/08 01:53:57;;;;;;;20.77;13.55;;;;;;;-1.33;100.00;94693.22;10445525;28;20025;-77
2021/04/08 01:58:58;;;;;;;20.50;12.80;;;;;;;-1.36;100.00;94688.34;10444987;28;20025;-77
2021/04/08 02:03:59;;;;;;;19.88;11.40;;;;;;;-1.30;100.00;94695.44;10445181;28;20087;-77
2021/04/08 02:09:00;;;;;;;15.65;10.93;;;;;;;-1.28;100.00;94706.63;10443622;28;20133;-76
2021/04/08 02:14:00;;;;;;;17.55;10.43;;;;;;;-1.25;100.00;94702.75;10443824;28;20055;-76
2021/04/08 02:19:02;;;;;;;18.33;11.77;;;;;;;-1.23;100.00;94706.00;10449876;28;20054;-76
2021/04/08 02:24:04;;;;;;;22.27;11.48;;;;;;;-1.00;100.00;94707.47;10484618;28;20025;-76
2021/04/08 02:29:04;;;;;;;17.98;12.93;;;;;;;-1.06;100.00;94715.16;10480337;28;20021;-76
2021/04/08 02:34:07;;;;;;;19.65;11.15;;;;;;;-0.99;100.00;94723.09;10485893;28;20666;-77
2021/04/08 02:39:09;;;;;;;18.98;10.88;;;;;;;-0.95;100.00;94724.31;10489482;28;20097;-76
2021/04/08 02:44:10;;;;;;;17.65;10.88;;;;;;;-1.09;100.00;94710.31;10490928;28;20024;-76
2021/04/08 02:49:11;;;;;;;19.60;11.52;;;;;;;-1.08;100.00;94721.66;10493022;28;20024;-77
2021/04/08 02:54:35;;;;;;;19.58;10.57;;;;;;;-1.09;100.00;94725.28;10493438;28;20073;-77
2021/04/08 03:00:03;;;;;;;13.95;10.45;;;;;;;-1.17;100.00;94742.13;10493841;28;20837;-77
2021/04/08 03:05:07;;;;;;;20.43;9.60;;;;;;;-1.16;100.00;94735.03;10493058;28;20051;-77
2021/04/08 03:10:10;;;;;;;18.52;10.88;;;;;;;-1.21;100.00;94743.53;10492429;28;20503;-77
2021/04/08 03:15:13;;;;;;;19.95;11.75;;;;;;;-1.27;100.00;94755.69;10492644;28;20127;-77
2021/04/08 03:20:14;;;;;;;18.88;12.02;;;;;;;-1.26;100.00;94765.22;10490372;28;20029;-77
2021/04/08 03:25:16;;;;;;;20.25;11.52;;;;;;;-1.31;100.00;94774.72;10491512;28;20028;-77
2021/04/08 03:30:17;;;;;;;16.52;12.02;;;;;;;-1.28;100.00;94790.97;10491399;28;20036;-77
2021/04/08 03:35:17;;;;;;;21.52;11.02;;;;;;;-1.22;100.00;94798.09;10464360;28;20087;-77
2021/04/08 03:40:19;;;;;;;17.33;10.52;;;;;;;-1.02;100.00;94812.34;10448904;28;20084;-77
2021/04/08 03:45:20;;;;;;;19.23;11.25;;;;;;;-0.83;100.00;94824.78;10447937;28;20013;-76
2021/04/08 03:50:20;;;;;;;17.02;11.18;;;;;;;-0.75;100.00;94815.88;10447845;28;20021;-77
2021/04/08 03:55:23;;;;;;;21.17;10.82;;;;;;;-0.64;100.00;94833.75;10447045;28;20029;-77
2021/04/08 04:00:24;;;;;;;21.13;10.30;;;;;;;-0.83;100.00;94842.44;10449138;28;20029;-77
2021/04/08 04:05:25;;;;;;;26.70;11.25;;;;;;;-0.79;100.00;94838.41;10448213;28;20017;-77
2021/04/08 04:10:26;;;;;;;21.50;11.73;;;;;;;-0.65;100.00;94855.06;10446550;28;20029;-77
2021/04/08 04:15:26;;;;;;;19.10;11.18;;;;;;;-0.59;100.00;94852.44;10444750;28;20074;-77
2021/04/08 04:20:27;;;;;;;22.75;12.57;;;;;;;-0.46;100.00;94856.09;10464879;28;20424;-75
2021/04/08 04:25:28;;;;;;;20.55;10.38;;;;;;;-0.26;100.00;94854.31;10489183;28;20031;-76
2021/04/08 04:30:28;;;;;;;23.60;11.27;;;;;;;-0.23;100.00;94882.13;10460007;28;20096;-76
2021/04/08 04:35:29;;;;;;;23.55;11.20;;;;;;;-0.31;100.00;94887.63;10450037;28;20433;-75
2021/04/08 04:40:29;;;;;;;21.35;10.98;;;;;;;-0.33;100.00;94885.19;10484171;28;20025;-72
2021/04/08 04:45:30;;;;;;;23.00;13.63;;;;;;;-0.22;100.00;94895.16;10483618;28;20047;-72
2021/04/08 04:50:30;;;;;;;18.97;11.17;;;;;;;0.02;100.00;94900.03;10484267;28;20079;-72
2021/04/08 04:55:30;;;;;;;23.93;12.60;;;;;;;0.18;100.00;94902.25;10482596;28;20119;-72
2021/04/08 05:00:31;;;;;;;22.13;10.88;;;;;;;0.25;100.00;94904.91;10481091;28;20290;-72
2021/04/08 05:05:32;;;;;;;22.80;12.57;;;;;;;0.01;100.00;94908.97;10482744;28;20044;-75
2021/04/08 05:10:32;;;;;;;25.63;12.43;;;;;;;0.25;100.00;94911.03;10479181;28;20462;-75
2021/04/08 05:15:32;;;;;;;23.53;11.70;;;;;;;0.36;100.00;94917.50;10482283;28;20416;-75
2021/04/08 05:20:33;;;;;;;21.63;12.23;;;;;;;0.57;100.00;94918.28;10481895;28;20653;-75
2021/04/08 05:25:33;;;;;;;22.00;10.93;;;;;;;0.53;100.00;94922.38;10467542;28;20033;-75
2021/04/08 05:30:33;;;;;;;17.47;10.03;;;;;;;0.72;100.00;94928.66;10440564;28;20029;-76
2021/04/08 05:35:34;;;;;;;19.03;11.03;;;;;;;0.86;100.00;94922.31;10441235;28;20287;-75
2021/04/08 05:40:34;;;;;;;22.70;12.77;;;;;;;0.99;100.00;94932.88;10441777;28;20029;-75
2021/04/08 05:45:35;;;;;;;19.47;11.03;;;;;;;1.26;100.00;94931.97;10475852;28;20095;-75
2021/04/08 05:50:35;;;;;;;18.63;11.13;;;;;;;1.58;100.00;94939.94;10483689;28;20035;-76
2021/04/08 05:55:35;;;;;;;25.58;13.38;;;;;;;1.28;100.00;94935.19;10482874;28;20075;-75
2021/04/08 06:00:36;;;;;;;32.87;13.00;;;;;;;0.91;100.00;94950.78;10481970;28;20111;-75
2021/04/08 06:05:36;;;;;;;22.60;11.30;;;;;;;0.95;100.00;94958.13;10482755;28;20286;-74
2021/04/08 06:10:37;;;;;;;20.40;12.15;;;;;;;1.41;100.00;94971.41;10482636;28;20270;-75
2021/04/08 06:15:37;;;;;;;26.43;12.30;;;;;;;1.74;100.00;94965.16;10481682;28;20056;-75
2021/04/08 06:20:37;;;;;;;26.15;12.68;;;;;;;2.16;100.00;94966.34;10490271;28;20043;-75
2021/04/08 06:25:38;;;;;;;21.05;11.65;;;;;;;2.59;100.00;94971.91;10490129;28;20027;-75
2021/04/08 06:30:40;;;;;;;17.77;11.13;;;;;;;2.96;100.00;94985.25;10488574;28;20032;-75
2021/04/08 06:35:41;;;;;;;16.38;9.93;;;;;;;2.91;100.00;94981.41;10488298;28;20036;-75
2021/04/08 06:40:42;;;;;;;16.65;11.60;;;;;;;2.29;100.00;94991.09;10489882;28;20031;-75
2021/04/08 06:45:47;;;;;;;18.93;11.90;;;;;;;2.15;100.00;94998.34;10489217;28;20024;-75
2021/04/08 06:50:51;;;;;;;20.05;11.55;;;;;;;1.66;100.00;95008.59;10487631;28;21153;-75
2021/04/08 06:55:52;;;;;;;19.92;12.77;;;;;;;1.47;100.00;95013.75;10488975;28;20510;-75
2021/04/08 07:00:53;;;;;;;17.98;11.25;;;;;;;1.39;100.00;95010.53;10487185;28;20020;-75
2021/04/08 07:05:53;;;;;;;20.70;11.10;;;;;;;1.60;100.00;95009.44;10488369;28;20041;-75
2021/04/08 07:10:53;;;;;;;16.03;10.70;;;;;;;2.48;100.00;95021.97;10488519;28;20071;-75
2021/04/08 07:15:55;;;;;;;24.67;10.97;;;;;;;3.26;100.00;95017.22;10487900;28;20082;-75
2021/04/08 07:20:58;;;;;;;14.82;10.35;;;;;;;4.22;100.00;95020.19;10487766;28;20275;-75
2021/04/08 07:26:04;;;;;;;15.70;10.50;;;;;;;4.77;91.44;95032.47;10487497;28;20063;-75
2021/04/08 07:31:28;;;;;;;13.48;8.80;;;;;;;4.83;77.63;95036.09;10486933;28;20445;-74
2021/04/08 07:36:30;;;;;;;21.42;9.65;;;;;;;6.01;76.98;95021.06;10490870;28;20091;-74
2021/04/08 07:41:33;;;;;;;16.38;9.05;;;;;;;7.91;62.89;95024.06;10487678;28;20044;-74
2021/04/08 07:46:38;;;;;;;12.98;8.18;;;;;;;10.38;52.76;95015.25;10486533;28;20021;-74
2021/04/08 07:51:38;;;;;;;15.98;8.40;;;;;;;11.75;46.72;95017.41;10486798;28;20020;-75
2021/04/08 07:56:39;;;;;;;16.73;8.83;;;;;;;10.56;50.76;95029.25;10486769;28;20024;-75
2021/04/08 08:01:39;;;;;;;14.43;7.50;;;;;;;12.93;42.94;95020.63;10486005;28;20134;-74
2021/04/08 08:06:39;;;;;;;11.73;7.83;;;;;;;13.42;39.19;95018.91;10446828;28;20051;-74
2021/04/08 08:11:41;;;;;;;12.63;7.80;;;;;;;10.36;41.97;95020.06;10444442;28;20040;-75
2021/04/08 08:17:00;;;;;;;12.77;7.68;;;;;;;10.35;42.96;95034.56;10444353;28;20112;-74
2021/04/08 08:22:03;;;;;;;16.73;8.68;;;;;;;12.19;41.21;95033.97;10479006;28;20029;-74
2021/04/08 08:27:03;;;;;;;12.07;6.43;;;;;;;13.16;40.65;95029.91;10484657;28;20056;-75
2021/04/08 08:32:05;;;;;;;10.32;5.22;;;;;;;13.20;37.71;95038.22;10484951;28;20037;-75
2021/04/08 08:37:11;;;;;;;7.97;4.75;;;;;;;13.08;35.74;95039.41;10484536;28;20584;-75
2021/04/08 08:42:14;;;;;;;11.18;5.55;;;;;;;13.12;37.39;95036.97;10484255;28;20036;-75
2021/04/08 08:47:26;;;;;;;10.38;5.93;;;;;;;13.56;36.34;95036.06;10484643;28;20520;-75
2021/04/08 08:52:32;;;;;;;11.10;5.78;;;;;;;12.14;38.29;95046.38;10484226;28;20020;-75
2021/04/08 08:57:32;;;;;;;16.85;6.38;;;;;;;11.23;38.52;95048.97;10483797;28;20028;-75
2021/04/08 09:02:34;;;;;;;12.93;6.40;;;;;;;10.57;40.13;95052.34;10484114;28;20028;-75
2021/04/08 09:07:35;;;;;;;19.65;6.97;;;;;;;9.65;40.43;95058.91;10482689;28;20387;-75
2021/04/08 09:12:35;;;;;;;10.43;7.03;;;;;;;8.58;43.39;95062.31;10483266;28;20025;-75
2021/04/08 09:17:47;;;;;;;11.43;6.38;;;;;;;7.83;44.73;95059.28;10482674;28;20031;-75
2021/04/08 09:23:11;;;;;;;13.07;7.22;;;;;;;8.95;45.29;95056.25;10445506;28;20025;-76
2021/04/08 09:28:13;;;;;;;11.55;7.10;;;;;;;8.32;46.28;95051.31;10442343;28;20053;-76
2021/04/08 09:33:14;;;;;;;14.07;7.03;;;;;;;8.72;45.96;95057.34;10440352;28;20040;-76
2021/04/08 09:38:16;;;;;;;12.50;7.03;;;;;;;10.12;45.26;95040.34;10441730;28;20389;-75
2021/04/08 09:43:20;;;;;;;16.90;7.13;;;;;;;9.93;46.25;95043.50;10441476;28;20501;-74
2021/04/08 09:48:24;;;;;;;11.23;5.38;;;;;;;11.89;39.34;95043.72;10439615;28;20114;-74
2021/04/08 09:53:49;;;;;;;7.25;5.53;;;;;;;10.37;41.14;95042.38;10446377;28;20056;-76
2021/04/08 09:58:56;;;;;;;9.52;5.32;;;;;;;12.45;39.44;95043.56;10449406;28;20755;-76
2021/04/08 10:04:08;;;;;;;8.10;5.13;;;;;;;14.34;35.25;95033.34;10449810;28;20033;-76
2021/04/08 10:09:16;;;;;;;9.90;5.10;;;;;;;15.78;31.99;95022.25;10449971;28;20420;-76
2021/04/08 10:14:21;;;;;;;;;;;;;;;15.28;31.08;95015.53;10449037;28;20116;-76
2021/04/08 10:19:54;;;;;;;5.45;2.65;;;;;;;18.23;26.24;95017.03;10457029;28;20007;-76
2021/04/08 10:25:00;;;;;;;13.45;4.25;;;;;;;14.21;27.16;95039.47;10483508;28;20063;-74
2021/04/08 10:30:11;;;;;;;7.80;4.65;;;;;;;11.60;32.75;95053.22;10489230;28;20082;-75
2021/04/08 10:35:37;;;;;;;12.52;4.80;;;;;;;10.05;35.75;95059.41;10488161;28;20028;-75
2021/04/08 10:40:48;;;;;;;6.72;4.10;;;;;;;9.66;38.17;95051.69;10445091;28;20041;-75
2021/04/08 10:45:52;;;;;;;9.25;6.38;;;;;;;9.02;39.16;95056.84;10447681;28;20032;-75
2021/04/08 10:50:54;;;;;;;7.75;5.80;;;;;;;7.52;42.32;95062.34;10447881;28;20028;-75
2021/04/08 10:55:55;;;;;;;13.95;7.85;;;;;;;7.84;43.45;95066.25;10445815;28;20029;-75
2021/04/08 11:00:56;;;;;;;16.45;6.72;;;;;;;7.00;42.55;95071.44;10447877;28;20418;-75
2021/04/08 11:05:57;;;;;;;8.32;5.13;;;;;;;6.44;40.75;95070.44;10445770;28;20037;-75
2021/04/08 11:10:57;;;;;;;13.00;5.50;;;;;;;5.57;43.85;95075.63;10446309;28;20101;-75
2021/04/08 11:15:57;;;;;;;11.50;5.68;;;;;;;5.50;44.34;95084.75;10446809;28;20044;-75
2021/04/08 11:20:59;;;;;;;9.53;5.87;;;;;;;5.61;48.24;95082.09;10468503;28;20032;-75
2021/04/08 11:26:07;;;;;;;14.30;6.78;;;;;;;4.94;53.06;95091.22;10487441;28;21163;-75
2021/04/08 11:31:11;;;;;;;8.75;5.25;;;;;;;4.82;61.89;95084.25;10487281;28;20021;-75
2021/04/08 11:36:19;;;;;;;10.77;6.15;;;;;;;5.15;57.03;95075.72;10486251;28;20028;-75
2021/04/08 11:41:20;;;;;;;11.70;5.32;;;;;;;5.63;51.50;95080.00;10487085;28;20964;-75
2021/04/08 11:46:30;;;;;;;9.02;4.95;;;;;;;5.96;48.66;95073.22;10486286;28;20029;-75
2021/04/08 11:51:31;;;;;;;11.30;5.10;;;;;;;6.41;46.75;95068.25;10452314;28;20040;-75
2021/04/08 11:56:42;;;;;;;10.10;4.07;;;;;;;6.93;43.13;95073.44;10444807;28;20107;-74
2021/04/08 12:01:50;;;;;;;9.57;4.13;;;;;;;6.93;43.24;95073.44;10444588;28;20032;-74
2021/04/08 12:06:55;;;;;;;9.20;5.32;;;;;;;6.60;45.08;95076.88;10445278;28;20045;-74
2021/04/08 12:11:56;;;;;;;7.30;3.80;;;;;;;6.32;44.90;95068.63;10444382;28;20059;-76
2021/04/08 12:17:08;;;;;;;9.50;3.75;;;;;;;5.70;45.60;95081.75;10443539;28;20025;-76
2021/04/08 12:22:11;;;;;;;6.10;3.72;;;;;;;5.36;46.31;95081.50;10475758;28;20043;-76
2021/04/08 12:27:21;;;;;;;6.55;4.00;;;;;;;5.42;45.22;95088.59;10485337;28;20043;-75
2021/04/08 12:32:28;;;;;;;6.65;4.30;;;;;;;4.89;49.46;95084.94;10484941;28;20043;-76
2021/04/08 12:37:29;;;;;;;7.80;4.40;;;;;;;5.01;49.59;95091.13;10484740;28;20040;-76
2021/04/08 12:42:30;;;;;;;8.00;3.42;;;;;;;4.86;48.52;95106.72;10483503;28;20271;-76
2021/04/08 12:47:30;;;;;;;4.10;2.60;;;;;;;4.95;48.08;95110.66;10484485;28;20036;-75
2021/04/08 12:52:30;;;;;;;5.07;2.90;;;;;;;4.89;47.06;95117.72;10484029;28;20032;-76
2021/04/08 12:57:31;;;;;;;4.88;2.75;;;;;;;4.73;48.10;95113.84;10484704;28;20037;-76
2021/04/08 13:02:31;;;;;;;4.20;2.83;;;;;;;4.67;47.29;95119.25;10484156;28;20085;-75
2021/04/08 13:07:31;;;;;;;3.75;3.05;;;;;;;4.62;46.20;95115.44;10483824;28;20044;-76
2021/04/08 13:12:32;;;;;;;4.47;2.73;;;;;;;4.05;50.00;95138.88;10483766;28;20039;-75
2021/04/08 13:17:33;;;;;;;6.03;3.33;;;;;;;3.84;55.17;95153.44;10483399;28;20386;-75
2021/04/08 13:22:34;;;;;;;7.20;3.60;;;;;;;3.39;64.87;95159.75;10447394;28;20032;-75
2021/04/08 13:27:35;;;;;;;7.60;4.47;;;;;;;3.89;67.40;95167.69;10441997;28;20043;-75
2021/04/08 13:32:35;;;;;;;6.15;3.40;;;;;;;4.11;58.58;95184.00;10442168;28;20048;-75
2021/04/08 13:37:36;;;;;;;4.72;3.92;;;;;;;3.94;61.58;95170.47;10441387;28;20448;-75
2021/04/08 13:42:37;;;;;;;13.43;3.95;;;;;;;3.89;59.94;95173.00;10441701;28;20478;-74
2021/04/08 13:47:38;;;;;;;6.75;3.67;;;;;;;3.80;63.37;95179.63;10441822;28;20029;-74
2021/04/08 13:52:39;;;;;;;8.93;3.70;;;;;;;3.81;57.46;95183.09;10441265;28;20068;-75
2021/04/08 13:57:40;;;;;;;6.45;3.10;;;;;;;3.82;61.03;95201.47;10441106;28;20068;-75
2021/04/08 14:02:41;;;;;;;6.20;4.15;;;;;;;3.73;75.61;95192.19;10441038;28;20154;-75
2021/04/08 14:07:42;;;;;;;8.45;4.88;;;;;;;3.83;86.65;95215.59;10440797;28;20049;-75
2021/04/08 14:12:43;;;;;;;17.85;4.60;;;;;;;3.97;77.55;95234.91;10440551;28;20037;-75
2021/04/08 14:17:44;;;;;;;3.72;2.80;;;;;;;3.87;68.93;95227.44;10441021;28;20404;-75
2021/04/08 14:22:44;;;;;;;3.75;3.15;;;;;;;3.12;67.74;95222.88;10454161;28;20047;-74
2021/04/08 14:27:45;;;;;;;4.65;2.88;;;;;;;3.46;61.69;95212.84;10440840;28;20066;-75
2021/04/08 14:32:45;;;;;;;5.28;3.00;;;;;;;3.64;53.41;95217.41;10440801;28;20447;-74
2021/04/08 14:37:46;;;;;;;3.73;3.30;;;;;;;4.16;54.62;95212.63;10460263;28;20042;-75
2021/04/08 14:42:46;;;;;;;5.50;3.17;;;;;;;4.71;52.91;95211.75;10485841;28;20642;-75
2021/04/08 14:47:47;;;;;;;8.37;4.40;;;;;;;4.29;52.42;95211.66;10447948;28;20029;-75
2021/04/08 14:52:48;;;;;;;7.47;3.97;;;;;;;4.16;54.47;95217.09;10454763;28;20029;-75
2021/04/08 14:57:49;;;;;;;6.88;3.45;;;;;;;3.94;53.67;95221.00;10483673;28;20020;-75
2021/04/08 15:02:50;;;;;;;6.47;3.42;;;;;;;4.07;55.61;95221.91;10487192;28;20024;-75
2021/04/08 15:07:50;;;;;;;6.63;3.67;;;;;;;4.09;54.11;95225.19;10487110;28;20044;-75
2021/04/08 15:12:51;;;;;;;7.80;3.35;;;;;;;3.95;50.35;95227.16;10445031;28;20659;-74
2021/04/08 15:17:51;;;;;;;8.60;3.60;;;;;;;4.11;51.06;95236.41;10444405;28;20043;-75
2021/04/08 15:22:52;;;;;;;8.10;3.57;;;;;;;4.03;51.20;95234.84;10481869;28;20043;-72
2021/04/08 15:27:52;;;;;;;5.00;3.20;;;;;;;3.74;51.50;95236.31;10486016;28;20351;-72
2021/04/08 15:32:53;;;;;;;6.20;3.47;;;;;;;3.66;52.49;95257.88;10485959;28;20085;-72
2021/04/08 15:37:53;;;;;;;6.15;3.47;;;;;;;3.61;51.76;95258.50;10462678;28;20302;-73
2021/04/08 15:42:54;;;;;;;7.37;3.80;;;;;;;3.47;53.56;95264.97;10444221;28;20130;-73
2021/04/08 15:47:54;;;;;;;9.43;4.00;;;;;;;3.59;52.84;95268.56;10466762;28;20445;-74
2021/04/08 15:52:54;;;;;;;9.30;4.33;;;;;;;3.49;53.47;95282.31;10486332;28;20040;-74
2021/04/08 15:57:55;;;;;;;10.48;4.65;;;;;;;3.89;53.21;95274.03;10484640;28;20029;-73
2021/04/08 16:02:55;;;;;;;6.10;2.90;;;;;;;4.13;52.03;95282.22;10484724;28;20059;-73
2021/04/08 16:07:56;;;;;;;9.32;3.60;;;;;;;4.36;50.28;95278.91;10476682;28;20045;-73
2021/04/08 16:12:56;;;;;;;7.97;2.83;;;;;;;4.25;48.34;95277.78;10453386;28;20033;-74
2021/04/08 16:17:57;;;;;;;6.77;3.47;;;;;;;4.42;48.07;95288.69;10460566;28;20025;-74
2021/04/08 16:22:59;;;;;;;3.55;2.50;;;;;;;4.54;47.69;95285.28;10461493;28;20142;-74
2021/04/08 16:27:59;;;;;;;8.10;3.00;;;;;;;4.53;47.08;95295.13;10477302;28;20117;-73
2021/04/08 16:33:00;;;;;;;8.47;3.60;;;;;;;4.57;46.77;95298.97;10475585;28;20040;-74
2021/04/08 16:38:00;;;;;;;6.13;3.47;;;;;;;4.57;47.26;95296.31;10468781;28;20033;-74
2021/04/08 16:43:01;;;;;;;5.78;2.92;;;;;;;4.53;46.08;95294.31;10471455;28;20042;-74
2021/04/08 16:48:02;;;;;;;4.65;2.42;;;;;;;4.51;44.32;95305.19;10471386;28;20036;-74
2021/04/08 16:53:03;;;;;;;7.70;3.40;;;;;;;4.37;45.36;95319.66;10461784;28;20094;-74
2021/04/08 16:58:03;;;;;;;6.53;3.63;;;;;;;4.14;47.27;95323.72;10458546;28;20041;-74
2021/04/08 17:03:04;;;;;;;20.90;4.18;;;;;;;3.87;47.85;95331.13;10463960;28;20040;-74
2021/04/08 17:08:04;;;;;;;4.63;3.00;;;;;;;3.70;48.63;95334.31;10470706;28;20044;-74
2021/04/08 17:13:05;;;;;;;6.03;2.95;;;;;;;3.38;49.00;95346.78;10467352;28;20510;-74
2021/04/08 17:18:05;;;;;;;7.28;3.42;;;;;;;3.32;49.43;95344.94;10460017;28;20042;-74
2021/04/08 17:23:06;;;;;;;6.47;3.65;;;;;;;2.91;49.89;95358.38;10459182;28;20032;-74
2021/04/08 17:28:06;;;;;;;9.63;4.43;;;;;;;2.68;50.58;95368.66;10462823;28;20086;-74
2021/04/08 17:33:11;;;;;;;7.50;4.57;;;;;;;2.58;50.83;95373.59;10458737;28;20036;-74
2021/04/08 17:38:12;;;;;;;10.48;5.18;;;;;;;2.35;52.55;95372.19;10458150;28;20033;-75
2021/04/08 17:43:12;;;;;;;10.88;5.25;;;;;;;2.22;53.23;95397.72;10451315;28;20029;-78
2021/04/08 17:48:13;;;;;;;8.07;4.60;;;;;;;2.06;55.15;95395.44;10442313;28;20025;-78
2021/04/08 17:53:13;;;;;;;10.33;4.80;;;;;;;1.99;55.65;95400.75;10442982;28;20350;-78
2021/04/08 17:58:13;;;;;;;10.03;4.60;;;;;;;1.92;54.84;95412.38;10483254;28;20291;-78
2021/04/08 18:03:14;;;;;;;6.97;3.88;;;;;;;1.92;53.49;95417.69;10483040;28;20308;-78
2021/04/08 18:08:14;;;;;;;13.60;4.32;;;;;;;1.89;54.33;95429.50;10455453;28;20045;-78
2021/04/08 18:13:15;;;;;;;7.03;4.33;;;;;;;1.93;54.41;95436.03;10446930;28;20043;-78
2021/04/08 18:18:15;;;;;;;6.90;4.47;;;;;;;1.85;55.18;95442.31;10452317;28;20082;-78
2021/04/08 18:23:16;;;;;;;7.13;4.30;;;;;;;1.77;55.07;95444.34;10478509;28;20052;-75
2021/04/08 18:28:16;;;;;;;6.75;4.22;;;;;;;1.66;56.29;95456.34;10456273;28;20037;-78
2021/04/08 18:33:21;;;;;;;11.20;4.30;;;;;;;1.71;55.25;95461.88;10492236;28;20495;-78
2021/04/08 18:38:22;;;;;;;6.25;4.00;;;;;;;1.77;54.26;95469.00;10492138;28;20059;-78
2021/04/08 18:43:24;;;;;;;7.68;4.32;;;;;;;1.74;54.87;95471.25;10471252;28;20467;-78
2021/04/08 18:48:25;;;;;;;7.97;5.00;;;;;;;1.67;53.57;95471.22;10474911;28;20024;-79
2021/04/08 18:53:25;;;;;;;7.23;4.27;;;;;;;1.71;53.41;95477.75;10491940;28;20288;-78
2021/04/08 18:58:28;;;;;;;10.90;5.20;;;;;;;1.68;55.67;95480.81;10492921;28;20379;-78
2021/04/08 19:03:28;;;;;;;7.38;4.45;;;;;;;1.71;54.19;95493.66;10492163;28;20032;-80
2021/04/08 19:08:30;;;;;;;8.60;4.60;;;;;;;1.73;55.07;95499.59;10491762;28;20895;-79
2021/04/08 19:13:30;;;;;;;10.23;4.05;;;;;;;1.79;54.46;95503.28;10490166;28;20024;-79
2021/04/08 19:18:30;;;;;;;8.35;4.63;;;;;;;1.74;54.09;95503.06;10487231;28;20024;-78
2021/04/08 19:23:31;;;;;;;11.20;4.87;;;;;;;1.76;55.31;95503.66;10485938;28;20499;-78
2021/04/08 19:28:32;;;;;;;8.88;5.43;;;;;;;1.87;56.66;95508.38;10486289;28;20692;-78
2021/04/08 19:33:32;;;;;;;22.15;5.40;;;;;;;2.00;56.84;95523.53;10488310;28;20759;-78
2021/04/08 19:38:33;;;;;;;9.18;4.63;;;;;;;1.97;55.49;95515.97;10490142;28;20115;-79
2021/04/08 19:43:34;;;;;;;9.63;5.47;;;;;;;2.04;55.53;95516.81;10468653;28;20119;-79
2021/04/08 19:48:34;;;;;;;8.23;4.35;;;;;;;1.84;54.44;95522.88;10478897;28;20016;-79
2021/04/08 19:53:35;;;;;;;12.80;5.07;;;;;;;1.92;55.85;95521.88;10487473;28;20062;-79
2021/04/08 19:58:35;;;;;;;7.37;4.57;;;;;;;1.69;57.23;95523.00;10488577;28;20039;-78
2021/04/08 20:03:37;;;;;;;8.52;5.10;;;;;;;1.60;58.38;95526.84;10488332;28;20048;-80
2021/04/08 20:08:37;;;;;;;8.27;4.47;;;;;;;1.42;59.18;95519.41;10484915;28;20040;-78
2021/04/08 20:13:37;;;;;;;6.47;3.93;;;;;;;1.45;61.69;95539.41;10486273;28;20109;-78
2021/04/08 20:18:39;;;;;;;12.40;5.57;;;;;;;1.42;60.78;95535.31;10487536;28;20278;-79
2021/04/08 20:23:39;;;;;;;10.85;5.15;;;;;;;1.45;64.35;95542.88;10486973;28;20665;-78
2021/04/08 20:28:40;;;;;;;9.23;4.72;;;;;;;1.34;62.76;95538.94;10485822;28;20035;-78
2021/04/08 20:33:43;;;;;;;10.27;4.85;;;;;;;1.31;64.58;95549.94;10487505;28;20029;-78
2021/04/08 20:38:43;;;;;;;9.77;4.18;;;;;;;1.31;64.29;95554.41;10485831;28;20490;-79
2021/04/08 20:43:45;;;;;;;8.73;5.05;;;;;;;1.39;69.07;95559.53;10486028;28;20036;-79
2021/04/08 20:48:45;;;;;;;14.13;4.55;;;;;;;1.40;68.53;95563.03;10484699;28;20016;-78
2021/04/08 20:53:46;;;;;;;7.80;4.53;;;;;;;1.29;67.43;95573.13;10484355;28;20028;-79
2021/04/08 20:58:46;;;;;;;7.78;3.97;;;;;;;1.21;69.88;95580.41;10484988;28;20320;-79
2021/04/08 21:03:47;;;;;;;9.27;4.63;;;;;;;1.09;70.04;95575.66;10485317;28;20028;-79
2021/04/08 21:08:47;;;;;;;7.75;4.20;;;;;;;1.07;69.51;95582.16;10485871;28;20048;-79
2021/04/08 21:13:47;;;;;;;6.87;3.97;;;;;;;1.25;70.16;95587.75;10485577;28;20066;-79
2021/04/08 21:18:49;;;;;;;12.57;4.03;;;;;;;1.29;72.41;95599.63;10487799;28;20017;-79
2021/04/08 21:23:50;;;;;;;9.32;4.30;;;;;;;1.40;70.11;95592.16;10462142;28;20456;-79
2021/04/08 21:28:50;;;;;;;8.68;4.20;;;;;;;1.48;69.79;95597.28;10447617;28;20033;-80
2021/04/08 21:33:51;;;;;;;6.50;3.83;;;;;;;1.54;70.04;95597.31;10446994;28;20086;-80
2021/04/08 21:38:51;;;;;;;10.43;3.90;;;;;;;1.60;70.50;95600.22;10468215;28;20139;-80
2021/04/08 21:43:52;;;;;;;6.18;4.32;;;;;;;1.60;72.00;95595.72;10451086;28;20104;-79
2021/04/08 21:48:52;;;;;;;5.13;3.63;;;;;;;1.57;69.22;95595.31;10445228;28;20455;-78
2021/04/08 21:53:52;;;;;;;8.30;4.80;;;;;;;1.62;73.32;95611.41;10445387;28;20275;-78
2021/04/08 21:58:53;;;;;;;6.30;3.57;;;;;;;1.77;69.51;95603.34;10444238;28;20291;-79
2021/04/08 22:03:53;;;;;;;7.95;3.92;;;;;;;1.78;68.43;95605.81;10446094;28;20109;-78
2021/04/08 22:08:54;;;;;;;10.63;3.58;;;;;;;1.92;71.42;95605.88;10445295;28;20049;-78
2021/04/08 22:13:55;;;;;;;10.35;4.20;;;;;;;1.82;71.66;95606.25;10442180;28;20025;-79
2021/04/08 22:18:55;;;;;;;10.40;4.00;;;;;;;1.56;72.59;95612.22;10442732;28;20021;-79
2021/04/08 22:24:01;;;;;;;4.28;3.25;;;;;;;1.54;72.37;95623.81;10440575;28;20025;-80
2021/04/08 22:29:01;;;;;;;7.68;3.75;;;;;;;1.55;72.64;95635.25;10442170;28;20044;-79
2021/04/08 22:34:04;;;;;;;6.88;3.47;;;;;;;1.46;71.27;95637.22;10441855;28;20033;-79
2021/04/08 22:39:04;;;;;;;7.18;3.13;;;;;;;1.51;71.23;95639.28;10441664;28;20044;-80
2021/04/08 22:44:05;;;;;;;8.18;3.67;;;;;;;1.46;74.66;95631.91;10441840;28;20029;-79
2021/04/08 22:49:05;;;;;;;8.10;3.38;;;;;;;1.32;72.61;95633.66;10441544;28;20115;-80
2021/04/08 22:54:07;;;;;;;9.50;3.70;;;;;;;1.40;73.20;95631.88;10442853;28;20045;-81
2021/04/08 22:59:14;;;;;;;11.68;3.55;;;;;;;1.38;73.35;95641.84;10446277;28;20425;-79
2021/04/08 23:04:14;;;;;;;8.43;3.95;;;;;;;1.23;74.95;95636.63;10450606;28;20029;-80
2021/04/08 23:09:17;;;;;;;6.55;4.15;;;;;;;1.32;72.53;95638.13;10449957;28;20480;-80
2021/04/08 23:14:17;;;;;;;7.88;3.58;;;;;;;1.25;69.33;95645.22;10450332;28;20029;-80
2021/04/08 23:19:18;;;;;;;4.60;3.40;;;;;;;1.20;69.18;95635.22;10448719;28;20504;-75